Time;durP1;ratioP1;P1;durP2;ratioP2;P2;SDS_P1;SDS_P2;PMS_P1;PMS_P2;Temp;Humidity;BMP_temperature;BMP_pressure;BME280_temperature;BME280_humidity;BME280_pressure;Samples;Min_cycle;Max_cycle;Signal;HPM_P1;HPM_P2
2023/12/13 00:01:49;;;;;;;;;;;20.20;63.10;;;;;;7317169;19;9531;-65
2023/12/13 00:04:18;;;;;;;;;;;20.20;63.10;;;;;;7317972;19;9205;-65
2023/12/13 00:06:47;;;;;;;;;;;20.20;63.10;;;;;;7316431;19;9172;-65
2023/12/13 00:09:16;;;;;;;;;;;20.20;63.20;;;;;;7314828;19;9469;-65
2023/12/13 00:11:45;;;;;;;;;;;20.10;63.20;;;;;;7316406;19;9504;-65
2023/12/13 00:14:17;;;;;;;;;;;20.10;63.20;;;;;;7317285;19;9546;-65
2023/12/13 00:16:46;;;;;;;;;;;20.10;63.30;;;;;;7316003;19;10618;-65
2023/12/13 00:19:15;;;;;;;;;;;20.10;63.40;;;;;;7315253;19;9267;-65
2023/12/13 00:22:04;;;;;;;;;;;20.00;63.40;;;;;;7316116;19;9250;-64
2023/12/13 00:24:35;;;;;;;;;;;20.00;63.50;;;;;;7317051;19;9373;-65
2023/12/13 00:27:05;;;;;;;;;;;20.00;63.50;;;;;;7317008;19;9304;-65
2023/12/13 00:29:37;;;;;;;;;;;19.90;63.50;;;;;;7318077;19;9457;-65
2023/12/13 00:32:06;;;;;;;;;;;19.90;63.60;;;;;;7308925;19;9246;-65
2023/12/13 00:34:36;;;;;;;;;;;19.90;63.70;;;;;;7310465;19;9455;-65
2023/12/13 00:37:24;;;;;;;;;;;19.80;63.70;;;;;;7314366;19;9524;-65
2023/12/13 00:39:53;;;;;;;;;;;19.80;63.70;;;;;;7308759;19;9692;-65
2023/12/13 00:42:22;;;;;;;;;;;19.70;63.80;;;;;;7310625;19;9270;-65
2023/12/13 00:44:54;;;;;;;;;;;19.70;63.80;;;;;;7315468;19;9458;-65
2023/12/13 00:47:23;;;;;;;;;;;19.60;63.90;;;;;;7314290;19;9507;-65
2023/12/13 00:49:53;;;;;;;;;;;19.60;63.90;;;;;;7316736;19;9170;-66
2023/12/13 00:52:23;;;;;;;;;;;19.60;63.90;;;;;;7315105;19;9489;-65
2023/12/13 00:54:52;;;;;;;;;;;19.60;64.00;;;;;;7315479;19;9153;-64
2023/12/13 00:57:21;;;;;;;;;;;19.60;64.00;;;;;;7308955;19;9606;-65
2023/12/13 00:59:50;;;;;;;;;;;19.60;64.10;;;;;;7317826;19;10566;-64
2023/12/13 01:02:22;;;;;;;;;;;19.50;64.00;;;;;;7321165;19;9451;-65
2023/12/13 01:04:51;;;;;;;;;;;19.50;64.10;;;;;;7322339;19;9861;-65
2023/12/13 01:07:20;;;;;;;;;;;19.40;64.10;;;;;;7319171;19;9458;-65
2023/12/13 01:09:49;;;;;;;;;;;19.50;64.20;;;;;;7321181;19;9357;-65
2023/12/13 01:12:18;;;;;;;;;;;19.40;64.20;;;;;;7319607;19;10688;-65
2023/12/13 01:14:47;;;;;;;;;;;19.40;64.20;;;;;;7320078;19;9461;-64
2023/12/13 01:17:16;;;;;;;;;;;19.40;64.20;;;;;;7320054;19;9177;-64
2023/12/13 01:19:49;;;;;;;;;;;19.40;64.20;;;;;;7323824;19;9536;-64
2023/12/13 01:22:18;;;;;;;;;;;19.40;64.10;;;;;;7322607;19;9579;-65
2023/12/13 01:24:47;;;;;;;;;;;19.50;64.10;;;;;;7321551;19;9605;-65
2023/12/13 01:27:16;;;;;;;;;;;19.50;64.00;;;;;;7321482;19;9266;-65
2023/12/13 01:29:45;;;;;;;;;;;19.60;64.00;;;;;;7321265;19;9456;-64
2023/12/13 01:32:14;;;;;;;;;;;19.60;63.90;;;;;;7314528;19;9602;-65
2023/12/13 01:34:43;;;;;;;;;;;19.70;63.80;;;;;;7318166;19;9180;-64
2023/12/13 01:37:14;;;;;;;;;;;19.80;63.70;;;;;;7320154;19;9226;-65
2023/12/13 01:39:44;;;;;;;;;;;19.80;63.60;;;;;;7319446;19;9160;-64
2023/12/13 01:42:14;;;;;;;;;;;19.90;63.50;;;;;;7310895;19;9228;-64
2023/12/13 01:44:43;;;;;;;;;;;19.90;63.50;;;;;;7320674;19;9285;-64
2023/12/13 01:47:12;;;;;;;;;;;20.00;63.50;;;;;;7321523;19;9607;-64
2023/12/13 01:49:42;;;;;;;;;;;20.10;63.30;;;;;;7321323;19;9503;-64
2023/12/13 01:52:15;;;;;;;;;;;20.10;63.20;;;;;;7320674;19;12094;-67
2023/12/13 01:54:44;;;;;;;;;;;20.20;63.10;;;;;;7321850;19;9638;-64
2023/12/13 01:57:15;;;;;;;;;;;20.20;63.00;;;;;;7319546;19;9748;-64
2023/12/13 01:59:45;;;;;;;;;;;20.20;63.00;;;;;;7313624;19;9344;-64
2023/12/13 02:02:16;;;;;;;;;;;20.20;62.90;;;;;;7319835;19;9453;-64
2023/12/13 02:04:47;;;;;;;;;;;20.20;62.80;;;;;;7320240;19;10558;-64
2023/12/13 02:07:19;;;;;;;;;;;20.30;62.90;;;;;;7317799;19;9588;-64
2023/12/13 02:09:48;;;;;;;;;;;20.20;62.80;;;;;;7319317;19;9216;-64
2023/12/13 02:12:17;;;;;;;;;;;20.20;62.80;;;;;;7318297;19;9502;-64
2023/12/13 02:14:46;;;;;;;;;;;20.20;62.80;;;;;;7320320;19;9466;-64
2023/12/13 02:17:35;;;;;;;;;;;20.10;62.80;;;;;;7311052;19;9515;-64
2023/12/13 02:20:04;;;;;;;;;;;20.10;62.80;;;;;;7318012;19;11075;-64
2023/12/13 02:22:35;;;;;;;;;;;20.10;62.90;;;;;;7317743;19;9237;-64
2023/12/13 02:25:14;;;;;;;;;;;20.10;62.90;;;;;;7320476;19;9224;-64
2023/12/13 02:27:43;;;;;;;;;;;20.00;63.00;;;;;;7317740;19;9521;-64
2023/12/13 02:30:13;;;;;;;;;;;20.00;63.00;;;;;;7318330;19;9725;-64
2023/12/13 02:32:42;;;;;;;;;;;20.00;63.10;;;;;;7319486;19;9557;-64
2023/12/13 02:35:31;;;;;;;;;;;20.00;63.10;;;;;;7317140;19;9497;-64
2023/12/13 02:38:03;;;;;;;;;;;19.90;63.10;;;;;;7317330;19;9489;-65
2023/12/13 02:40:32;;;;;;;;;;;19.80;63.20;;;;;;7320497;19;9541;-64
2023/12/13 02:43:01;;;;;;;;;;;19.80;63.20;;;;;;7318747;19;9485;-64
2023/12/13 02:45:30;;;;;;;;;;;19.80;63.30;;;;;;7320140;19;9239;-63
2023/12/13 02:47:59;;;;;;;;;;;19.80;63.40;;;;;;7318906;19;9457;-64
2023/12/13 02:50:48;;;;;;;;;;;19.70;63.40;;;;;;7317056;19;9517;-65
2023/12/13 02:53:20;;;;;;;;;;;19.70;63.40;;;;;;7316416;19;10423;-64
2023/12/13 02:55:49;;;;;;;;;;;19.70;63.50;;;;;;7320692;19;9599;-64
2023/12/13 02:58:18;;;;;;;;;;;19.70;63.50;;;;;;7309174;19;9568;-64
2023/12/13 03:00:50;;;;;;;;;;;19.70;63.60;;;;;;7315944;19;9601;-64
2023/12/13 03:03:19;;;;;;;;;;;19.60;63.60;;;;;;7318831;19;9631;-64
2023/12/13 03:05:48;;;;;;;;;;;19.60;63.70;;;;;;7318019;19;9481;-64
2023/12/13 03:08:20;;;;;;;;;;;19.50;63.70;;;;;;7311130;19;9205;-65
2023/12/13 03:10:49;;;;;;;;;;;19.50;63.80;;;;;;7313641;19;9465;-64
2023/12/13 03:13:18;;;;;;;;;;;19.50;63.80;;;;;;7318692;19;9461;-64
2023/12/13 03:15:47;;;;;;;;;;;19.40;63.80;;;;;;7318932;19;10002;-64
2023/12/13 03:18:16;;;;;;;;;;;19.40;63.80;;;;;;7317973;19;9699;-64
2023/12/13 03:20:45;;;;;;;;;;;19.50;63.90;;;;;;7318894;19;10914;-65
2023/12/13 03:23:13;;;;;;;;;;;19.50;63.90;;;;;;7317493;19;9276;-65
2023/12/13 03:26:05;;;;;;;;;;;19.40;63.80;;;;;;7315544;19;9669;-65
2023/12/13 03:28:35;;;;;;;;;;;19.50;63.80;;;;;;7310319;19;9484;-65
2023/12/13 03:31:10;;;;;;;;;;;19.50;63.70;;;;;;7317479;19;9414;-65
2023/12/13 03:33:40;;;;;;;;;;;19.60;63.60;;;;;;7312846;19;9442;-65
2023/12/13 03:36:16;;;;;;;;;;;19.70;63.60;;;;;;7318154;19;9474;-65
2023/12/13 03:38:46;;;;;;;;;;;19.70;63.40;;;;;;7319141;19;9558;-65
2023/12/13 03:41:17;;;;;;;;;;;19.80;63.40;;;;;;7310934;19;9427;-64
2023/12/13 03:43:46;;;;;;;;;;;19.80;63.30;;;;;;7314658;19;9438;-65
2023/12/13 03:46:15;;;;;;;;;;;19.90;63.90;;;;;;7317948;19;9431;-65
2023/12/13 03:48:44;;;;;;;;;;;20.00;63.20;;;;;;7317635;19;9220;-65
2023/12/13 03:51:13;;;;;;;;;;;20.00;63.10;;;;;;7316982;19;9192;-65
2023/12/13 03:53:42;;;;;;;;;;;20.10;63.00;;;;;;7318509;19;9254;-65
2023/12/13 03:56:12;;;;;;;;;;;20.10;62.80;;;;;;7317630;19;9179;-65
2023/12/13 03:58:44;;;;;;;;;;;20.20;62.80;;;;;;7316645;19;9288;-65
2023/12/13 04:01:13;;;;;;;;;;;20.20;63.30;;;;;;7308141;19;9169;-65
2023/12/13 04:03:42;;;;;;;;;;;20.20;62.70;;;;;;7317844;19;9168;-65
2023/12/13 04:06:11;;;;;;;;;;;20.20;62.60;;;;;;7315469;19;9481;-65
2023/12/13 04:08:40;;;;;;;;;;;20.20;62.60;;;;;;7316742;19;9756;-65
2023/12/13 04:11:09;;;;;;;;;;;20.20;62.50;;;;;;7314111;19;10700;-65
2023/12/13 04:13:38;;;;;;;;;;;20.20;62.60;;;;;;7317455;19;9473;-64
2023/12/13 04:16:10;;;;;;;;;;;20.20;62.60;;;;;;7316050;19;9477;-64
2023/12/13 04:18:39;;;;;;;;;;;20.20;62.60;;;;;;7316292;19;9506;-64
2023/12/13 04:21:08;;;;;;;;;;;20.10;62.60;;;;;;7315977;19;9316;-64
2023/12/13 04:23:37;;;;;;;;;;;20.10;62.60;;;;;;7316488;19;9618;-64
2023/12/13 04:26:07;;;;;;;;;;;20.10;62.70;;;;;;7317139;19;9560;-64
2023/12/13 04:28:36;;;;;;;;;;;20.10;62.70;;;;;;7316155;19;9469;-64
2023/12/13 04:31:05;;;;;;;;;;;20.00;62.70;;;;;;7317084;19;9505;-64
2023/12/13 04:33:36;;;;;;;;;;;20.00;62.80;;;;;;7314483;19;9265;-64
2023/12/13 04:36:06;;;;;;;;;;;20.00;62.80;;;;;;7319874;19;9505;-64
2023/12/13 04:38:35;;;;;;;;;;;19.90;62.90;;;;;;7323283;19;9641;-65
2023/12/13 04:41:04;;;;;;;;;;;19.90;62.90;;;;;;7320330;19;9472;-65
2023/12/13 04:43:33;;;;;;;;;;;19.90;63.00;;;;;;7320638;19;9178;-64
2023/12/13 04:46:02;;;;;;;;;;;19.80;63.00;;;;;;7321853;19;11056;-64
2023/12/13 04:48:31;;;;;;;;;;;19.80;63.10;;;;;;7322409;19;9529;-64
2023/12/13 04:51:02;;;;;;;;;;;19.70;63.10;;;;;;7318622;19;9190;-65
2023/12/13 04:53:31;;;;;;;;;;;19.70;63.20;;;;;;7320735;19;9553;-65
2023/12/13 04:56:00;;;;;;;;;;;19.70;63.20;;;;;;7318854;19;9467;-64
2023/12/13 04:58:29;;;;;;;;;;;19.60;63.30;;;;;;7320981;19;9456;-64
2023/12/13 05:00:58;;;;;;;;;;;19.60;63.30;;;;;;7321824;19;9237;-65
2023/12/13 05:03:29;;;;;;;;;;;19.60;63.30;;;;;;7318408;19;9274;-65
2023/12/13 05:05:57;;;;;;;;;;;19.50;63.30;;;;;;7321609;19;9351;-64
2023/12/13 05:08:30;;;;;;;;;;;19.50;63.40;;;;;;7321915;19;9109;-64
2023/12/13 05:10:59;;;;;;;;;;;19.50;63.50;;;;;;7321249;19;9231;-64
2023/12/13 05:13:28;;;;;;;;;;;19.50;63.90;;;;;;7320851;19;9287;-64
2023/12/13 05:15:57;;;;;;;;;;;19.50;63.60;;;;;;7322550;19;9526;-65
2023/12/13 05:18:26;;;;;;;;;;;19.50;63.50;;;;;;7321631;19;9461;-65
2023/12/13 05:20:55;;;;;;;;;;;19.50;64.10;;;;;;7319339;19;9210;-65
2023/12/13 05:23:25;;;;;;;;;;;19.50;63.40;;;;;;7319354;19;9475;-64
2023/12/13 05:25:56;;;;;;;;;;;19.60;63.40;;;;;;7320884;19;9470;-64
2023/12/13 05:28:25;;;;;;;;;;;19.60;63.30;;;;;;7321535;19;9269;-64
2023/12/13 05:30:54;;;;;;;;;;;19.70;63.30;;;;;;7321522;19;9280;-65
2023/12/13 05:33:23;;;;;;;;;;;19.70;63.10;;;;;;7320869;19;9976;-64
2023/12/13 05:35:52;;;;;;;;;;;19.80;63.10;;;;;;7321580;19;9570;-64
2023/12/13 05:38:21;;;;;;;;;;;19.90;63.10;;;;;;7321331;19;9471;-64
2023/12/13 05:40:50;;;;;;;;;;;19.90;63.00;;;;;;7313012;19;10691;-65
2023/12/13 05:43:21;;;;;;;;;;;20.00;62.90;;;;;;7316705;19;9648;-64
2023/12/13 05:45:50;;;;;;;;;;;20.00;62.80;;;;;;7320528;19;9392;-64
2023/12/13 05:48:19;;;;;;;;;;;20.10;62.80;;;;;;7321053;19;9414;-64
2023/12/13 05:50:48;;;;;;;;;;;20.10;62.70;;;;;;7320223;19;9465;-64
2023/12/13 05:53:17;;;;;;;;;;;20.20;62.70;;;;;;7321793;19;9450;-64
2023/12/13 05:55:46;;;;;;;;;;;20.20;62.60;;;;;;7321708;19;9405;-65
2023/12/13 05:58:15;;;;;;;;;;;20.20;62.50;;;;;;7311380;19;9517;-64
2023/12/13 06:00:46;;;;;;;;;;;20.20;62.50;;;;;;7318101;19;9471;-64
2023/12/13 06:03:15;;;;;;;;;;;20.20;62.40;;;;;;7320368;19;9242;-64
2023/12/13 06:05:45;;;;;;;;;;;20.20;62.40;;;;;;7321116;19;9535;-64
2023/12/13 06:08:14;;;;;;;;;;;20.20;62.40;;;;;;7320703;19;9606;-64
2023/12/13 06:10:43;;;;;;;;;;;20.20;62.40;;;;;;7319243;19;9470;-64
2023/12/13 06:13:12;;;;;;;;;;;20.20;62.40;;;;;;7318967;19;9522;-64
2023/12/13 06:15:41;;;;;;;;;;;20.20;62.40;;;;;;7313791;19;9469;-64
2023/12/13 06:18:13;;;;;;;;;;;20.10;62.40;;;;;;7316490;19;10295;-65
2023/12/13 06:20:41;;;;;;;;;;;20.10;62.40;;;;;;7318981;19;9321;-64
2023/12/13 06:23:10;;;;;;;;;;;20.10;62.50;;;;;;7310035;19;13423;-65
2023/12/13 06:25:39;;;;;;;;;;;20.00;62.50;;;;;;7320960;19;9505;-65
2023/12/13 06:28:08;;;;;;;;;;;20.00;62.60;;;;;;7318987;19;9721;-64
2023/12/13 06:30:37;;;;;;;;;;;20.00;62.60;;;;;;7319061;19;9272;-65
2023/12/13 06:33:06;;;;;;;;;;;19.90;62.60;;;;;;7320166;19;9425;-64
2023/12/13 06:35:37;;;;;;;;;;;19.90;62.70;;;;;;7319905;19;9853;-65
2023/12/13 06:38:06;;;;;;;;;;;19.90;62.80;;;;;;7311762;19;9536;-64
2023/12/13 06:40:35;;;;;;;;;;;19.90;62.90;;;;;;7318014;19;9470;-65
2023/12/13 06:43:05;;;;;;;;;;;19.80;62.90;;;;;;7316692;19;9465;-64
2023/12/13 06:45:54;;;;;;;;;;;19.80;62.90;;;;;;7316893;19;9337;-65
2023/12/13 06:48:23;;;;;;;;;;;19.70;63.00;;;;;;7321042;19;9473;-64
2023/12/13 06:50:55;;;;;;;;;;;19.70;63.00;;;;;;7317107;19;10686;-65
2023/12/13 06:53:24;;;;;;;;;;;19.70;63.10;;;;;;7316860;19;9479;-65
2023/12/13 06:55:54;;;;;;;;;;;19.60;63.10;;;;;;7310674;19;9458;-65
2023/12/13 06:58:23;;;;;;;;;;;19.60;63.10;;;;;;7315642;19;9574;-65
2023/12/13 07:00:52;;;;;;;;;;;19.60;63.30;;;;;;7317082;19;9300;-65
2023/12/13 07:03:21;;;;;;;;;;;19.60;63.30;;;;;;7318231;19;9328;-65
2023/12/13 07:05:51;;;;;;;;;;;19.50;63.30;;;;;;7319162;19;9472;-65
2023/12/13 07:08:22;;;;;;;;;;;19.50;63.40;;;;;;7314256;19;9564;-63
2023/12/13 07:10:51;;;;;;;;;;;19.50;63.40;;;;;;7308727;19;9324;-64
2023/12/13 07:13:20;;;;;;;;;;;19.50;63.60;;;;;;7309834;19;9539;-65
2023/12/13 07:15:49;;;;;;;;;;;19.40;63.60;;;;;;7318452;19;9469;-65
2023/12/13 07:18:21;;;;;;;;;;;19.50;63.90;;;;;;7319564;19;9518;-64
2023/12/13 07:20:50;;;;;;;;;;;19.50;63.90;;;;;;7319064;19;9433;-65
2023/12/13 07:23:22;;;;;;;;;;;19.50;63.90;;;;;;7316972;19;9520;-64
2023/12/13 07:25:50;;;;;;;;;;;19.60;63.90;;;;;;7304542;19;9760;-64
2023/12/13 07:28:19;;;;;;;;;;;19.60;63.80;;;;;;7311348;19;9606;-64
2023/12/13 07:30:48;;;;;;;;;;;19.60;63.70;;;;;;7316858;19;9429;-64
2023/12/13 07:33:38;;;;;;;;;;;19.70;63.60;;;;;;7314451;19;9278;-64
2023/12/13 07:36:07;;;;;;;;;;;19.80;63.50;;;;;;7317427;19;9498;-65
2023/12/13 07:38:41;;;;;;;;;;;19.80;63.40;;;;;;7319311;19;9498;-64
2023/12/13 07:41:10;;;;;;;;;;;19.90;63.30;;;;;;7316314;19;9642;-64
2023/12/13 07:43:39;;;;;;;;;;;19.90;63.20;;;;;;7310601;19;9245;-65
2023/12/13 07:46:09;;;;;;;;;;;20.00;63.10;;;;;;7316502;19;9224;-64
2023/12/13 07:48:37;;;;;;;;;;;20.00;63.10;;;;;;7316273;19;9613;-64
2023/12/13 07:51:07;;;;;;;;;;;20.10;63.00;;;;;;7318372;19;9602;-64
2023/12/13 07:53:38;;;;;;;;;;;20.10;63.00;;;;;;7317962;19;9225;-64
2023/12/13 07:56:08;;;;;;;;;;;20.20;62.90;;;;;;7317887;19;9493;-64
2023/12/13 07:58:38;;;;;;;;;;;20.20;62.80;;;;;;7308337;19;9430;-64
2023/12/13 08:01:07;;;;;;;;;;;20.20;62.70;;;;;;7308990;19;9459;-65
2023/12/13 08:03:36;;;;;;;;;;;20.20;62.70;;;;;;7309641;19;9524;-64
2023/12/13 08:06:26;;;;;;;;;;;20.20;62.70;;;;;;7313451;19;9541;-64
2023/12/13 08:08:57;;;;;;;;;;;20.20;62.60;;;;;;7314964;19;9579;-65
2023/12/13 08:11:26;;;;;;;;;;;20.20;62.60;;;;;;7323497;19;9644;-65
2023/12/13 08:13:55;;;;;;;;;;;20.20;62.60;;;;;;7319974;19;9392;-64
2023/12/13 08:16:24;;;;;;;;;;;20.20;62.70;;;;;;7322970;19;9573;-64
2023/12/13 08:18:54;;;;;;;;;;;20.20;62.60;;;;;;7322646;19;9427;-64
2023/12/13 08:21:23;;;;;;;;;;;20.20;62.70;;;;;;7324691;19;9460;-64
2023/12/13 08:23:53;;;;;;;;;;;20.20;62.70;;;;;;7322041;19;9587;-64
2023/12/13 08:26:25;;;;;;;;;;;20.20;62.80;;;;;;7323066;19;9521;-64
2023/12/13 08:28:54;;;;;;;;;;;20.10;62.80;;;;;;7311030;19;9274;-65
2023/12/13 08:31:23;;;;;;;;;;;20.00;62.80;;;;;;7305594;19;10944;-65
2023/12/13 08:33:52;;;;;;;;;;;20.00;62.90;;;;;;7318762;19;9246;-64
2023/12/13 08:36:22;;;;;;;;;;;20.00;62.90;;;;;;7312717;19;9457;-64
2023/12/13 08:38:51;;;;;;;;;;;19.90;63.00;;;;;;7314603;19;9510;-65
2023/12/13 08:41:20;;;;;;;;;;;19.90;63.00;;;;;;7313963;19;9744;-64
2023/12/13 08:43:51;;;;;;;;;;;19.80;63.10;;;;;;7318021;19;9573;-64
2023/12/13 08:46:20;;;;;;;;;;;19.80;63.10;;;;;;7324079;19;10537;-64
2023/12/13 08:48:50;;;;;;;;;;;19.80;63.10;;;;;;7322422;19;9669;-64
2023/12/13 08:51:18;;;;;;;;;;;19.80;63.20;;;;;;7321536;19;9246;-64
2023/12/13 08:53:48;;;;;;;;;;;19.80;63.20;;;;;;7322915;19;9414;-64
2023/12/13 08:56:17;;;;;;;;;;;19.70;63.30;;;;;;7321882;19;9377;-64
2023/12/13 08:58:46;;;;;;;;;;;19.70;63.30;;;;;;7322028;19;9850;-64
2023/12/13 09:01:38;;;;;;;;;;;19.70;63.40;;;;;;7317708;19;9497;-64
2023/12/13 09:04:07;;;;;;;;;;;19.60;63.40;;;;;;7322990;19;9212;-65
2023/12/13 09:06:36;;;;;;;;;;;19.60;63.40;;;;;;7322370;19;9230;-65
2023/12/13 09:09:09;;;;;;;;;;;19.60;63.50;;;;;;7323115;19;9276;-64
2023/12/13 09:11:39;;;;;;;;;;;19.50;63.50;;;;;;7322151;19;9146;-64
2023/12/13 09:14:08;;;;;;;;;;;19.50;63.60;;;;;;7320675;19;9449;-65
2023/12/13 09:16:40;;;;;;;;;;;19.50;63.70;;;;;;7314973;19;9593;-64
2023/12/13 09:19:11;;;;;;;;;;;19.50;63.70;;;;;;7319318;19;9404;-64
2023/12/13 09:21:40;;;;;;;;;;;19.50;63.70;;;;;;7315290;19;9237;-64
2023/12/13 09:24:10;;;;;;;;;;;19.40;64.20;;;;;;7319762;19;9391;-65
2023/12/13 09:26:39;;;;;;;;;;;19.50;63.70;;;;;;7321879;19;9222;-65
2023/12/13 09:29:08;;;;;;;;;;;19.50;63.70;;;;;;7321087;19;9548;-66
2023/12/13 09:31:39;;;;;;;;;;;19.50;63.70;;;;;;7322340;19;9359;-64
2023/12/13 09:34:09;;;;;;;;;;;19.60;63.60;;;;;;7319434;19;9514;-64
2023/12/13 09:36:38;;;;;;;;;;;19.60;63.50;;;;;;7321705;19;9357;-66
2023/12/13 09:39:07;;;;;;;;;;;19.70;63.50;;;;;;7321750;19;9548;-63
2023/12/13 09:41:53;;;;;;;;;;;19.70;63.40;;;;;;7319428;19;10384;-64
2023/12/13 09:44:25;;;;;;;;;;;19.80;63.40;;;;;;7311767;19;9154;-65
2023/12/13 09:47:01;;;;;;;;;;;19.80;63.20;;;;;;7318113;19;9400;-64
2023/12/13 09:49:31;;;;;;;;;;;20.00;63.10;;;;;;7320183;19;9174;-64
2023/12/13 09:52:05;;;;;;;;;;;20.00;63.20;;;;;;7319225;19;10546;-64
2023/12/13 09:54:35;;;;;;;;;;;20.10;63.00;;;;;;7320033;19;9306;-64
2023/12/13 09:57:04;;;;;;;;;;;20.10;62.90;;;;;;7319018;19;9260;-64
2023/12/13 09:59:33;;;;;;;;;;;20.10;62.80;;;;;;7321344;19;9694;-64
2023/12/13 10:02:26;;;;;;;;;;;20.20;62.70;;;;;;7312347;19;9516;-64
2023/12/13 10:04:57;;;;;;;;;;;20.20;62.70;;;;;;7317261;19;9551;-64
2023/12/13 10:07:27;;;;;;;;;;;20.20;62.70;;;;;;7317515;19;10844;-64
2023/12/13 10:09:57;;;;;;;;;;;20.20;62.60;;;;;;7319122;19;9099;-64
2023/12/13 10:12:29;;;;;;;;;;;20.20;62.60;;;;;;7320066;19;9273;-64
2023/12/13 10:14:57;;;;;;;;;;;20.20;62.50;;;;;;7318496;19;9273;-64
2023/12/13 10:17:50;;;;;;;;;;;20.20;62.50;;;;;;7318537;19;9218;-64
2023/12/13 10:20:19;;;;;;;;;;;20.20;62.50;;;;;;7320040;19;9308;-64
2023/12/13 10:22:49;;;;;;;;;;;20.20;62.60;;;;;;7313757;19;9381;-64
2023/12/13 10:25:21;;;;;;;;;;;20.30;62.60;;;;;;7319073;19;9265;-64
2023/12/13 10:27:50;;;;;;;;;;;20.20;62.60;;;;;;7311506;19;9246;-64
2023/12/13 10:30:20;;;;;;;;;;;20.20;62.70;;;;;;7319690;19;9620;-64
2023/12/13 10:32:52;;;;;;;;;;;20.20;62.70;;;;;;7316486;19;9389;-65
2023/12/13 10:35:22;;;;;;;;;;;20.10;62.70;;;;;;7319198;19;9237;-64
2023/12/13 10:37:55;;;;;;;;;;;20.10;62.70;;;;;;7317357;19;9437;-67
2023/12/13 10:40:24;;;;;;;;;;;20.10;62.80;;;;;;7320163;19;9531;-63
2023/12/13 10:42:55;;;;;;;;;;;20.10;62.80;;;;;;7317960;19;9569;-63
2023/12/13 10:45:26;;;;;;;;;;;20.00;62.80;;;;;;7317681;19;9482;-63
2023/12/13 10:48:04;;;;;;;;;;;20.00;62.90;;;;;;7312778;19;9454;-64
2023/12/13 10:50:34;;;;;;;;;;;20.00;63.00;;;;;;7313588;19;9480;-64
2023/12/13 10:53:25;;;;;;;;;;;20.00;63.10;;;;;;7314740;19;9501;-64
2023/12/13 10:56:16;;;;;;;;;;;19.90;63.20;;;;;;7315186;19;10190;-64
2023/12/13 10:58:45;;;;;;;;;;;19.90;63.30;;;;;;7313748;19;9468;-64
2023/12/13 11:01:16;;;;;;;;;;;19.90;63.40;;;;;;7318082;19;9535;-65
2023/12/13 11:03:54;;;;;;;;;;;19.90;63.40;;;;;;7316819;19;9467;-64
2023/12/13 11:06:25;;;;;;;;;;;19.90;63.40;;;;;;7314517;19;9451;-64
2023/12/13 11:08:55;;;;;;;;;;;19.90;63.40;;;;;;7315610;19;9546;-64
2023/12/13 11:11:30;;;;;;;;;;;19.90;63.20;;;;;;7307043;19;10323;-64
2023/12/13 11:14:00;;;;;;;;;;;20.00;63.30;;;;;;7317412;19;9470;-64
2023/12/13 11:16:30;;;;;;;;;;;20.10;63.20;;;;;;7318192;19;9274;-64
2023/12/13 11:19:04;;;;;;;;;;;20.10;63.30;;;;;;7301099;19;10696;-64
2023/12/13 11:21:36;;;;;;;;;;;20.10;63.70;;;;;;7306286;19;9170;-64
2023/12/13 11:24:19;;;;;;;;;;;20.20;63.10;;;;;;7317784;19;9213;-65
2023/12/13 11:26:52;;;;;;;;;;;20.30;63.10;;;;;;7318012;19;9598;-64
2023/12/13 11:29:25;;;;;;;;;;;20.30;63.10;;;;;;7318898;19;9469;-64
2023/12/13 11:31:56;;;;;;;;;;;20.40;63.00;;;;;;7318232;19;9460;-64
2023/12/13 11:34:41;;;;;;;;;;;20.40;63.00;;;;;;7318250;19;9448;-64
2023/12/13 11:37:11;;;;;;;;;;;20.50;62.80;;;;;;7308451;19;9481;-65
2023/12/13 11:39:42;;;;;;;;;;;20.50;62.80;;;;;;7312117;19;9477;-64
2023/12/13 11:42:15;;;;;;;;;;;20.60;62.70;;;;;;7317233;19;9625;-64
2023/12/13 11:44:44;;;;;;;;;;;20.60;62.70;;;;;;7309282;19;9512;-63
2023/12/13 11:47:33;;;;;;;;;;;20.70;62.70;;;;;;7312483;19;12341;-64
2023/12/13 11:50:05;;;;;;;;;;;20.70;62.70;;;;;;7317176;19;9433;-64
2023/12/13 11:52:34;;;;;;;;;;;20.70;62.70;;;;;;7316868;19;9251;-64
2023/12/13 11:55:03;;;;;;;;;;;20.70;62.70;;;;;;7317193;19;9417;-64
2023/12/13 11:57:33;;;;;;;;;;;20.60;62.60;;;;;;7314598;19;9457;-64
2023/12/13 12:00:04;;;;;;;;;;;20.70;62.70;;;;;;7317151;19;9509;-64
2023/12/13 12:02:33;;;;;;;;;;;20.60;62.70;;;;;;7307119;19;9937;-65
2023/12/13 12:05:06;;;;;;;;;;;20.60;62.80;;;;;;7317908;19;9885;-65
2023/12/13 12:07:35;;;;;;;;;;;20.60;62.80;;;;;;7314917;19;9534;-64
2023/12/13 12:10:07;;;;;;;;;;;20.60;62.80;;;;;;7316203;19;9203;-63
2023/12/13 12:12:38;;;;;;;;;;;20.60;63.00;;;;;;7314299;19;9589;-63
2023/12/13 12:15:11;;;;;;;;;;;20.60;63.00;;;;;;7311523;19;9710;-66
2023/12/13 12:17:40;;;;;;;;;;;20.50;63.00;;;;;;7308292;19;9462;-66
2023/12/13 12:20:12;;;;;;;;;;;20.50;63.10;;;;;;7312179;19;9506;-66
2023/12/13 12:22:42;;;;;;;;;;;20.50;63.10;;;;;;7309472;19;9517;-66
2023/12/13 12:25:31;;;;;;;;;;;20.50;63.20;;;;;;7309546;19;9505;-66
2023/12/13 12:28:01;;;;;;;;;;;20.40;63.90;;;;;;7314413;19;9346;-63
2023/12/13 12:30:30;;;;;;;;;;;20.40;63.30;;;;;;7304712;19;10722;-64
2023/12/13 12:32:59;;;;;;;;;;;20.40;63.30;;;;;;7315345;19;9580;-64
2023/12/13 12:35:30;;;;;;;;;;;20.30;63.30;;;;;;7315595;19;9548;-64
2023/12/13 12:37:59;;;;;;;;;;;20.30;63.30;;;;;;7316297;19;9418;-64
2023/12/13 12:40:28;;;;;;;;;;;20.20;63.40;;;;;;7317458;19;9469;-65
2023/12/13 12:43:21;;;;;;;;;;;20.20;63.40;;;;;;7315874;19;9528;-65
2023/12/13 12:45:51;;;;;;;;;;;20.20;63.50;;;;;;7309463;19;9178;-65
2023/12/13 12:48:20;;;;;;;;;;;20.20;63.60;;;;;;7313003;19;9459;-65
2023/12/13 12:50:52;;;;;;;;;;;20.10;63.60;;;;;;7313570;19;9473;-65
2023/12/13 12:53:22;;;;;;;;;;;20.10;63.60;;;;;;7315125;19;9479;-64
2023/12/13 12:55:51;;;;;;;;;;;20.00;63.60;;;;;;7318865;19;9474;-65
2023/12/13 12:58:20;;;;;;;;;;;20.00;63.70;;;;;;7323259;19;9473;-65
2023/12/13 13:00:50;;;;;;;;;;;20.00;63.70;;;;;;7315665;19;10632;-65
2023/12/13 13:03:20;;;;;;;;;;;20.00;63.70;;;;;;7322199;19;9500;-65
2023/12/13 13:05:51;;;;;;;;;;;20.00;63.70;;;;;;7320183;19;9308;-65
2023/12/13 13:08:20;;;;;;;;;;;20.10;63.70;;;;;;7322210;19;10727;-65
2023/12/13 13:10:49;;;;;;;;;;;20.10;63.60;;;;;;7320769;19;9244;-65
2023/12/13 13:13:18;;;;;;;;;;;20.10;63.40;;;;;;7322943;19;9402;-65
2023/12/13 13:15:48;;;;;;;;;;;20.20;63.50;;;;;;7321925;19;9439;-65
2023/12/13 13:18:17;;;;;;;;;;;20.20;63.40;;;;;;7322649;19;9465;-65
2023/12/13 13:20:46;;;;;;;;;;;20.30;63.30;;;;;;7321206;19;9386;-65
2023/12/13 13:23:18;;;;;;;;;;;20.30;63.30;;;;;;7321418;19;9446;-65
2023/12/13 13:25:47;;;;;;;;;;;20.40;63.20;;;;;;7320172;19;12115;-65
2023/12/13 13:28:15;;;;;;;;;;;20.40;63.20;;;;;;7320759;19;10314;-65
2023/12/13 13:30:44;;;;;;;;;;;20.50;63.10;;;;;;7322900;19;9371;-65
2023/12/13 13:33:13;;;;;;;;;;;20.50;63.10;;;;;;7322072;19;9310;-66
2023/12/13 13:35:42;;;;;;;;;;;20.50;63.00;;;;;;7320689;19;9400;-66
2023/12/13 13:38:12;;;;;;;;;;;20.60;63.00;;;;;;7322124;19;9585;-65
2023/12/13 13:40:43;;;;;;;;;;;20.60;62.90;;;;;;7321742;19;9266;-66
2023/12/13 13:43:12;;;;;;;;;;;20.60;62.80;;;;;;7320956;19;9140;-65
2023/12/13 13:45:41;;;;;;;;;;;20.70;62.90;;;;;;7321371;19;9627;-65
2023/12/13 13:48:10;;;;;;;;;;;20.70;62.80;;;;;;7320379;19;9563;-65
2023/12/13 13:50:39;;;;;;;;;;;20.70;62.80;;;;;;7321966;19;9655;-65
2023/12/13 13:53:09;;;;;;;;;;;20.70;62.80;;;;;;7321601;19;9381;-65
2023/12/13 13:55:39;;;;;;;;;;;20.70;62.80;;;;;;7319401;19;9445;-65
2023/12/13 13:58:31;;;;;;;;;;;20.70;62.70;;;;;;7319300;19;10635;-65
2023/12/13 14:01:00;;;;;;;;;;;20.70;62.70;;;;;;7322181;19;9247;-66
2023/12/13 14:03:29;;;;;;;;;;;20.60;62.60;;;;;;7310741;19;11260;-66
2023/12/13 14:05:59;;;;;;;;;;;20.60;62.70;;;;;;7320383;19;9291;-66
2023/12/13 14:08:28;;;;;;;;;;;20.60;62.70;;;;;;7315843;19;9683;-65
2023/12/13 14:10:57;;;;;;;;;;;20.60;62.70;;;;;;7319852;19;9949;-65
2023/12/13 14:13:29;;;;;;;;;;;20.50;62.70;;;;;;7320182;19;9650;-66
2023/12/13 14:15:59;;;;;;;;;;;20.50;62.80;;;;;;7321166;19;9344;-66
2023/12/13 14:18:27;;;;;;;;;;;20.50;62.80;;;;;;7317125;19;9191;-65
2023/12/13 14:20:56;;;;;;;;;;;20.40;62.90;;;;;;7313948;19;9677;-65
2023/12/13 14:23:25;;;;;;;;;;;20.40;62.90;;;;;;7317859;19;9598;-65
2023/12/13 14:25:55;;;;;;;;;;;20.40;63.10;;;;;;7320282;19;10356;-66
2023/12/13 14:28:24;;;;;;;;;;;20.30;63.00;;;;;;7319884;19;9477;-65
2023/12/13 14:30:56;;;;;;;;;;;20.30;63.10;;;;;;7320381;19;9293;-65
2023/12/13 14:33:45;;;;;;;;;;;20.30;63.10;;;;;;7315034;19;10437;-65
2023/12/13 14:36:14;;;;;;;;;;;20.20;63.20;;;;;;7317921;19;9182;-65
2023/12/13 14:38:43;;;;;;;;;;;20.20;63.20;;;;;;7318148;19;9477;-65
2023/12/13 14:41:12;;;;;;;;;;;20.20;63.30;;;;;;7317308;19;9605;-65
2023/12/13 14:43:41;;;;;;;;;;;20.10;63.30;;;;;;7319243;19;10399;-65
2023/12/13 14:46:14;;;;;;;;;;;20.10;63.40;;;;;;7319321;19;10094;-65
2023/12/13 14:48:43;;;;;;;;;;;20.10;63.40;;;;;;7319686;19;9284;-65
2023/12/13 14:51:13;;;;;;;;;;;20.00;63.50;;;;;;7319077;19;9301;-65